createdAt,value
2019-01-08T00:02:12.121Z,98703.78
2019-01-08T00:05:02.404Z,98698.63
2019-01-08T00:07:52.568Z,98693.50
2019-01-08T00:10:42.726Z,98686.65
2019-01-08T00:13:33.105Z,98682.38
2019-01-08T00:16:42.376Z,98670.40
2019-01-08T00:19:51.696Z,98657.98
2019-01-08T00:25:33.085Z,98647.67
2019-01-08T00:28:04.081Z,98633.98
2019-01-08T00:30:54.480Z,98627.14
2019-01-08T00:33:44.760Z,98619.88
2019-01-08T00:36:15.652Z,98617.72
2019-01-08T00:39:05.744Z,98607.86
2019-01-08T00:41:36.689Z,98603.18
2019-01-08T00:44:07.618Z,98597.61
2019-01-08T00:46:38.602Z,98588.61
2019-01-08T00:49:09.578Z,98586.03
2019-01-08T00:51:59.673Z,98589.05
2019-01-08T00:54:49.724Z,98580.46
2019-01-08T00:57:20.607Z,98569.77
2019-01-08T01:03:26.979Z,98556.06
2019-01-08T01:06:17.203Z,98546.23
2019-01-08T01:09:08.817Z,98536.36
2019-01-08T01:11:39.693Z,98531.22
2019-01-08T01:14:29.861Z,98530.81
2019-01-08T01:23:24.918Z,98531.64
2019-01-08T01:29:05.049Z,98499.53
2019-01-08T01:31:36.072Z,98496.97
2019-01-08T01:34:06.987Z,98488.40
2019-01-08T01:37:16.325Z,98487.98
2019-01-08T01:39:47.341Z,98480.25
2019-01-08T01:42:18.420Z,98471.25
2019-01-08T01:44:49.456Z,98479.82
2019-01-08T01:47:20.389Z,98465.27
2019-01-08T01:49:51.319Z,98455.81
2019-01-08T01:52:22.189Z,98441.69
2019-01-08T01:55:12.383Z,98438.66
2019-01-08T01:58:02.600Z,98434.80
2019-01-08T02:00:52.841Z,98429.23
2019-01-08T02:03:23.897Z,98434.80
2019-01-08T02:05:54.865Z,98412.53
2019-01-08T02:11:40.093Z,98403.96
2019-01-08T02:14:11.013Z,98400.10
2019-01-08T02:17:01.163Z,98390.25
2019-01-08T02:19:51.325Z,98382.97
2019-01-08T02:22:41.390Z,98368.41
2019-01-08T02:25:12.315Z,98369.23
2019-01-08T02:27:43.257Z,98359.41
2019-01-08T02:30:14.294Z,98346.09
2019-01-08T02:33:04.421Z,98342.66
2019-01-08T02:35:35.328Z,98334.52
2019-01-08T02:38:44.533Z,98332.37
2019-01-08T02:41:34.809Z,98323.85
2019-01-08T02:44:45.436Z,98319.14
2019-01-08T02:50:25.511Z,98298.57
2019-01-08T02:52:56.409Z,98296.82
2019-01-08T02:55:46.503Z,98283.11
2019-01-08T02:58:36.861Z,98283.97
2019-01-08T03:01:27.018Z,98276.25
2019-01-08T03:03:57.993Z,98262.53
2019-01-08T03:06:48.178Z,98257.78
2019-01-08T03:12:33.678Z,98245.77
2019-01-08T03:18:38.687Z,98223.91
2019-01-08T03:21:28.764Z,98223.44
2019-01-08T03:24:39.554Z,98214.45
2019-01-08T03:27:10.457Z,98205.44
2019-01-08T03:30:00.435Z,98209.72
2019-01-08T03:32:50.687Z,98196.88
2019-01-08T03:35:40.798Z,98196.01
2019-01-08T03:38:11.750Z,98183.59
2019-01-08T03:40:42.656Z,98181.45
2019-01-08T03:43:32.662Z,98167.78
2019-01-08T03:46:03.689Z,98154.92
2019-01-08T03:52:08.417Z,98153.23
2019-01-08T03:54:58.500Z,98153.28
2019-01-08T03:57:48.600Z,98140.87
2019-01-08T04:00:19.507Z,98140.87
2019-01-08T04:02:50.410Z,98124.21
2019-01-08T04:05:40.632Z,98119.08
2019-01-08T04:08:30.740Z,98107.52
2019-01-08T04:11:20.798Z,98095.94
2019-01-08T04:14:10.882Z,98101.94
2019-01-08T04:16:41.746Z,98094.23
2019-01-08T04:19:12.748Z,98095.90
2019-01-08T04:22:02.835Z,98086.45
2019-01-08T04:24:33.749Z,98072.24
2019-01-08T04:27:23.759Z,98075.23
2019-01-08T04:30:13.932Z,98061.94
2019-01-08T04:33:03.871Z,98060.99
2019-01-08T04:35:54.130Z,98059.70
2019-01-08T04:38:44.354Z,98057.08
2019-01-08T04:44:05.330Z,98056.55
2019-01-08T04:46:55.533Z,98050.91
2019-01-08T04:49:26.447Z,98039.73
2019-01-08T04:55:07.137Z,98042.66
2019-01-08T04:57:57.268Z,98033.19
2019-01-08T05:00:47.316Z,98018.55
2019-01-08T05:03:37.606Z,97994.02
2019-01-08T05:12:13.341Z,98016.59
2019-01-08T05:17:58.735Z,98013.47
2019-01-08T05:20:48.726Z,98004.48
2019-01-08T05:23:19.631Z,98001.91
2019-01-08T05:26:09.677Z,98013.09
2019-01-08T05:28:59.688Z,98006.21
2019-01-08T05:31:49.854Z,98003.28
2019-01-08T05:34:40.157Z,97980.56
2019-01-08T05:37:11.058Z,97999.42
2019-01-08T05:40:01.182Z,97986.07
2019-01-08T05:46:00.347Z,97989.14
2019-01-08T05:48:50.483Z,97990.02
2019-01-08T05:51:59.697Z,97988.30
2019-01-08T06:00:55.923Z,97946.70
2019-01-08T06:03:26.881Z,97968.06
2019-01-08T06:06:17.308Z,97966.34
2019-01-08T06:09:07.445Z,97965.05
2019-01-08T06:11:38.518Z,97977.03
2019-01-08T06:14:28.807Z,97961.05
2019-01-08T06:17:18.885Z,97961.47
2019-01-08T06:20:08.962Z,97959.72
2019-01-08T06:22:59.272Z,97963.53
2019-01-08T06:25:30.310Z,97954.06
2019-01-08T06:34:30.603Z,97942.62
2019-01-08T06:37:01.485Z,97952.83
2019-01-08T06:39:32.363Z,97960.02
2019-01-08T06:42:03.264Z,97945.39
2019-01-08T06:54:32.427Z,97936.27
2019-01-08T06:57:22.763Z,97933.23
2019-01-08T07:00:12.740Z,97937.42
2019-01-08T07:02:43.625Z,97924.67
2019-01-08T07:05:52.805Z,97913.72
2019-01-08T07:08:43.013Z,97913.95
2019-01-08T07:11:14.054Z,97900.83
2019-01-08T07:17:39.727Z,97906.02
2019-01-08T07:20:10.724Z,97903.48
2019-01-08T07:25:52.058Z,97908.63
2019-01-08T07:31:32.117Z,97912.91
2019-01-08T07:34:03.287Z,97927.89
2019-01-08T07:36:53.277Z,97917.45
2019-01-08T07:39:24.163Z,97914.56
2019-01-08T07:42:14.380Z,97912.34
2019-01-08T07:47:35.098Z,97904.04
2019-01-08T07:50:45.895Z,97902.05
2019-01-08T07:53:36.086Z,97898.73
2019-01-08T07:56:26.174Z,97899.78
2019-01-08T07:58:57.191Z,97881.51
2019-01-08T08:01:28.146Z,97892.13
2019-01-08T08:03:59.168Z,97880.13
2019-01-08T08:06:49.373Z,97885.97
2019-01-08T08:09:39.596Z,97883.16
2019-01-08T08:12:29.652Z,97885.28
2019-01-08T08:15:00.656Z,97881.50
2019-01-08T08:18:09.935Z,97887.53
2019-01-08T08:20:41.049Z,97874.72
2019-01-08T08:26:22.470Z,97871.47
2019-01-08T08:29:31.673Z,97877.16
2019-01-08T08:32:02.711Z,97879.94
2019-01-08T08:34:52.766Z,97876.64
2019-01-08T08:40:38.661Z,97887.63
2019-01-08T08:46:45.006Z,97889.92
2019-01-08T08:49:54.337Z,97902.41
2019-01-08T08:52:44.552Z,97873.75
2019-01-08T08:55:15.545Z,97886.20
2019-01-08T08:58:05.792Z,97876.55
2019-01-08T09:00:36.752Z,97878.45
2019-01-08T09:03:47.546Z,97869.14
2019-01-08T09:06:37.780Z,97882.56
2019-01-08T09:12:42.263Z,97874.17
2019-01-08T09:15:32.476Z,97872.91
2019-01-08T09:18:22.684Z,97859.39
2019-01-08T09:24:09.730Z,97849.86
2019-01-08T09:26:59.846Z,97829.66
2019-01-08T09:29:50.045Z,97810.64
2019-01-08T09:33:00.881Z,97808.13
2019-01-08T09:39:01.388Z,97801.23
2019-01-08T09:41:51.522Z,97795.73
2019-01-08T09:44:41.516Z,97804.36
2019-01-08T09:50:21.443Z,97798.83
2019-01-08T09:53:30.747Z,97795.66
2019-01-08T09:56:20.833Z,97782.30
2019-01-08T09:59:11.012Z,97791.45
2019-01-08T10:02:01.248Z,97788.63
2019-01-08T10:04:51.410Z,97793.86
2019-01-08T10:07:22.250Z,97774.48
2019-01-08T10:10:12.740Z,97771.45
2019-01-08T10:16:13.276Z,97774.69
2019-01-08T10:19:03.361Z,97756.98
2019-01-08T10:21:53.721Z,97763.00
2019-01-08T10:25:02.853Z,97751.75
2019-01-08T10:27:53.000Z,97754.26
2019-01-08T10:30:43.070Z,97757.89
2019-01-08T10:33:14.047Z,97750.24
2019-01-08T10:36:04.244Z,97720.30
2019-01-08T10:38:54.419Z,97731.86
2019-01-08T10:41:44.651Z,97750.38
2019-01-08T10:44:34.760Z,97716.83
2019-01-08T10:49:55.464Z,97726.73
2019-01-08T10:52:26.334Z,97694.77
2019-01-08T10:54:57.283Z,97710.78
2019-01-08T10:57:28.271Z,97708.67
2019-01-08T11:00:37.524Z,97688.02
2019-01-08T11:03:27.719Z,97699.63
2019-01-08T11:05:58.576Z,97687.16
2019-01-08T11:08:48.663Z,97691.80
2019-01-08T11:14:09.447Z,97705.70
2019-01-08T11:16:59.397Z,97669.11
2019-01-08T11:20:01.427Z,97661.73
2019-01-08T11:22:51.493Z,97662.77
2019-01-08T11:25:24.070Z,97653.69
2019-01-08T11:28:14.182Z,97646.27
2019-01-08T11:31:04.351Z,97659.11
2019-01-08T11:33:54.543Z,97660.19
2019-01-08T11:36:44.660Z,97636.86
2019-01-08T11:39:34.754Z,97612.79
2019-01-08T11:42:24.998Z,97599.06
2019-01-08T11:45:15.004Z,97607.98
2019-01-08T11:47:45.983Z,97631.88
2019-01-08T11:50:16.862Z,97602.45
2019-01-08T11:53:06.987Z,97602.86
2019-01-08T11:58:27.961Z,97599.10
2019-01-08T12:01:37.098Z,97585.37
2019-01-08T12:07:42.644Z,97595.23
2019-01-08T12:10:13.599Z,97583.60
2019-01-08T12:13:24.386Z,97555.25
2019-01-08T12:16:14.489Z,97556.84
2019-01-08T12:19:04.492Z,97570.48
2019-01-08T12:21:35.520Z,97558.45
2019-01-08T12:27:16.789Z,97527.84
2019-01-08T12:30:06.831Z,97531.77
2019-01-08T12:36:06.207Z,97535.69
2019-01-08T12:38:37.180Z,97538.63
2019-01-08T12:41:08.401Z,97542.55
2019-01-08T12:43:39.393Z,97511.42
2019-01-08T12:52:58.818Z,97514.23
2019-01-08T12:55:49.037Z,97505.12
2019-01-08T12:59:18.900Z,97513.47
2019-01-08T13:02:29.676Z,97541.98
2019-01-08T13:05:19.929Z,97523.57
2019-01-08T13:11:40.002Z,97514.05
2019-01-08T13:14:30.641Z,97491.27
2019-01-08T13:23:51.124Z,97517.59
2019-01-08T13:26:41.546Z,97508.30
2019-01-08T13:32:46.080Z,97504.96
2019-01-08T13:35:36.272Z,97525.14
2019-01-08T13:38:27.681Z,97505.56
2019-01-08T13:41:37.565Z,97528.98
2019-01-08T13:44:27.752Z,97516.70
2019-01-08T13:50:32.808Z,97481.45
2019-01-08T13:53:03.876Z,97496.52
2019-01-08T14:01:43.610Z,97496.31
2019-01-08T14:04:14.586Z,97488.28
2019-01-08T14:07:04.950Z,97484.08
2019-01-08T14:09:55.289Z,97485.90
2019-01-08T14:12:45.418Z,97477.34
2019-01-08T14:15:54.866Z,97469.64
2019-01-08T14:18:34.035Z,97489.97
2019-01-08T14:21:24.231Z,97448.97
2019-01-08T14:23:55.196Z,97498.69
2019-01-08T14:26:45.599Z,97470.00
2019-01-08T14:29:35.659Z,97482.14
2019-01-08T14:32:25.969Z,97492.31
2019-01-08T14:38:06.347Z,97475.61
2019-01-08T14:47:09.889Z,97489.70
2019-01-08T14:50:00.273Z,97480.70
2019-01-08T14:53:30.139Z,97498.91
2019-01-08T14:56:01.204Z,97500.02
2019-01-08T14:58:32.006Z,97472.08
2019-01-08T15:01:22.393Z,97478.41
2019-01-08T15:04:33.186Z,97487.52
2019-01-08T15:10:21.836Z,97491.36
2019-01-08T15:13:12.013Z,97477.56
2019-01-08T15:16:02.243Z,97492.98
2019-01-08T15:18:33.249Z,97498.70
2019-01-08T15:24:38.166Z,97504.96
2019-01-08T15:27:28.495Z,97484.58
2019-01-08T15:29:59.374Z,97489.03
2019-01-08T15:36:03.974Z,97500.52
2019-01-08T15:39:13.326Z,97485.11
2019-01-08T15:41:44.463Z,97498.86
2019-01-08T15:44:34.604Z,97472.95
2019-01-08T15:47:24.747Z,97476.05
2019-01-08T15:49:55.741Z,97499.70
2019-01-08T15:52:26.663Z,97487.63
2019-01-08T15:55:16.771Z,97485.19
2019-01-08T15:58:06.848Z,97485.05
2019-01-08T16:00:57.025Z,97497.02
2019-01-08T16:03:28.035Z,97503.29
2019-01-08T16:06:18.227Z,97472.45
2019-01-08T16:08:49.164Z,97464.34
2019-01-08T16:11:39.403Z,97472.70
2019-01-08T16:14:50.168Z,97469.98
2019-01-08T16:17:40.476Z,97467.06
2019-01-08T16:20:49.815Z,97463.75
2019-01-08T16:23:59.074Z,97449.08
2019-01-08T16:26:30.134Z,97453.47
2019-01-08T16:29:20.407Z,97471.60
2019-01-08T16:32:11.225Z,97437.73
2019-01-08T16:37:56.961Z,97463.01
2019-01-08T16:40:47.160Z,97454.75
2019-01-08T16:43:37.370Z,97468.48
2019-01-08T16:46:27.703Z,97475.52
2019-01-08T16:49:18.013Z,97466.30
2019-01-08T16:52:27.276Z,97465.63
2019-01-08T16:58:07.330Z,97480.28
2019-01-08T17:00:57.512Z,97489.37
2019-01-08T17:03:28.461Z,97471.59
2019-01-08T17:06:19.074Z,97466.41
2019-01-08T17:09:09.467Z,97476.92
2019-01-08T17:11:40.351Z,97484.63
2019-01-08T17:14:11.299Z,97462.30
2019-01-08T17:17:20.554Z,97463.15
2019-01-08T17:19:51.448Z,97451.08
2019-01-08T17:23:00.988Z,97455.38
2019-01-08T17:25:51.200Z,97459.52
2019-01-08T17:29:00.401Z,97454.33
2019-01-08T17:31:50.538Z,97473.73
2019-01-08T17:35:01.724Z,97452.59
2019-01-08T17:37:32.926Z,97445.38
2019-01-08T17:43:58.551Z,97453.52
2019-01-08T17:46:48.823Z,97470.64
2019-01-08T17:49:39.136Z,97447.81
2019-01-08T17:52:10.026Z,97453.38
2019-01-08T17:55:00.370Z,97433.64
2019-01-08T17:57:52.423Z,97448.53
2019-01-08T18:01:41.323Z,97444.62
2019-01-08T18:04:52.120Z,97434.64
2019-01-08T18:07:44.380Z,97413.70
2019-01-08T18:10:34.962Z,97430.36
2019-01-08T18:13:25.353Z,97437.11
2019-01-08T18:22:21.398Z,97445.06
2019-01-08T18:25:11.593Z,97410.83
2019-01-08T18:34:26.121Z,97428.62
2019-01-08T18:37:37.137Z,97426.80
2019-01-08T18:40:27.326Z,97438.09
2019-01-08T18:42:58.393Z,97427.44
2019-01-08T18:45:48.656Z,97444.47
2019-01-08T18:48:19.660Z,97451.38
2019-01-08T18:50:50.624Z,97446.63
2019-01-08T19:00:30.943Z,97444.25
2019-01-08T19:06:11.071Z,97461.55
2019-01-08T19:09:20.540Z,97442.67
2019-01-08T19:12:31.394Z,97449.64
2019-01-08T19:15:02.402Z,97440.00
2019-01-08T19:17:52.403Z,97455.52
2019-01-08T19:20:23.396Z,97450.59
2019-01-08T19:23:32.555Z,97451.66
2019-01-08T19:26:03.489Z,97443.49
2019-01-08T19:28:53.678Z,97444.56
2019-01-08T19:31:24.646Z,97438.13
2019-01-08T19:33:55.536Z,97451.34
2019-01-08T19:40:19.741Z,97436.30
2019-01-08T19:43:10.047Z,97417.45
2019-01-08T19:45:41.044Z,97422.07
2019-01-08T19:48:31.150Z,97432.84
2019-01-08T19:51:21.214Z,97427.73
2019-01-08T19:54:11.470Z,97431.63
2019-01-08T19:56:43.717Z,97406.27
2019-01-08T19:59:53.215Z,97417.61
2019-01-08T20:02:43.390Z,97412.88
2019-01-08T20:05:52.488Z,97417.52
2019-01-08T20:09:25.485Z,97411.93
2019-01-08T20:12:52.484Z,97402.54
2019-01-08T20:15:23.432Z,97388.21
2019-01-08T20:21:03.527Z,97409.94
2019-01-08T20:23:53.586Z,97416.38
2019-01-08T20:26:44.037Z,97399.50
2019-01-08T20:29:33.980Z,97388.76
2019-01-08T20:32:43.297Z,97392.05
2019-01-08T20:35:33.366Z,97380.77
2019-01-08T20:38:04.661Z,97387.47
2019-01-08T20:41:15.355Z,97369.88
2019-01-08T20:44:05.689Z,97367.73
2019-01-08T20:49:26.536Z,97333.64
2019-01-08T20:52:35.797Z,97339.55
2019-01-08T20:55:06.861Z,97359.07
2019-01-08T20:57:37.787Z,97365.81
2019-01-08T21:00:48.644Z,97332.67
2019-01-08T21:03:38.933Z,97363.30
2019-01-08T21:06:29.177Z,97396.33
2019-01-08T21:09:19.309Z,97344.39
2019-01-08T21:12:09.650Z,97362.55
2019-01-08T21:14:59.882Z,97368.20
2019-01-08T21:17:49.984Z,97368.80
2019-01-08T21:20:20.919Z,97368.02
2019-01-08T21:23:11.294Z,97356.13
2019-01-08T21:26:20.417Z,97354.87
2019-01-08T21:32:06.622Z,97351.10
2019-01-08T21:34:56.827Z,97351.52
2019-01-08T21:37:27.723Z,97375.61
2019-01-08T21:39:58.800Z,97376.99
2019-01-08T21:42:29.661Z,97361.77
2019-01-08T21:45:00.658Z,97388.97
2019-01-08T21:47:31.665Z,97388.61
2019-01-08T21:50:02.622Z,97388.23
2019-01-08T21:52:52.856Z,97392.09
2019-01-08T21:55:23.760Z,97392.91
2019-01-08T21:58:14.040Z,97379.67
2019-01-08T22:01:04.295Z,97374.52
2019-01-08T22:04:13.667Z,97384.94
2019-01-08T22:10:14.415Z,97378.82
2019-01-08T22:16:34.184Z,97359.31
2019-01-08T22:19:24.354Z,97377.17
2019-01-08T22:22:14.459Z,97367.33
2019-01-08T22:25:04.689Z,97383.55
2019-01-08T22:27:55.144Z,97350.76
2019-01-08T22:30:27.758Z,97366.42
2019-01-08T22:33:37.031Z,97366.13
2019-01-08T22:36:07.936Z,97360.66
2019-01-08T22:38:58.084Z,97357.24
2019-01-08T22:45:38.660Z,97351.38
2019-01-08T22:48:28.926Z,97352.10
2019-01-08T22:51:19.069Z,97348.77
2019-01-08T22:54:09.279Z,97331.92
2019-01-08T22:56:40.336Z,97351.22
2019-01-08T22:59:30.482Z,97341.25
2019-01-08T23:02:20.595Z,97330.89
2019-01-08T23:04:51.788Z,97335.95
2019-01-08T23:07:42.028Z,97336.35
2019-01-08T23:10:13.064Z,97325.69
2019-01-08T23:13:03.331Z,97312.79
2019-01-08T23:15:53.379Z,97343.97
2019-01-08T23:18:24.380Z,97315.39
2019-01-08T23:21:14.590Z,97330.45
2019-01-08T23:23:45.476Z,97339.10
2019-01-08T23:26:35.516Z,97334.40
2019-01-08T23:35:36.338Z,97311.03
2019-01-08T23:38:46.859Z,97337.61
2019-01-08T23:41:57.552Z,97283.08
2019-01-08T23:44:47.746Z,97317.47
2019-01-08T23:47:37.955Z,97314.95
2019-01-08T23:50:08.960Z,97324.36
2019-01-08T23:53:19.756Z,97308.80
2019-01-08T23:55:51.091Z,97315.17
2019-01-08T23:59:01.774Z,97323.80
